LYNI

Details ICAO LYNI (INI)
Name NIS
Region Serbia and Montenegro
Timezone Europe/Belgrade (UTC+2.0)
Plans Departing 106
Arriving 69
Stats Elevation 648 ft / 198 m (AMSL)
Location 43.336748° 21.855417°
Runways 1
Magnetic Variation 4.813° E
Sunrise 2018-05-22 03:03:27 UTC / 2018-05-22 05:03:27 Local
Sunset 2018-05-22 17:57:53 UTC / 2018-05-22 19:57:53 Local
Advertisement - Login to hide

Runways

ID Width Length Bearing (true) Bearing (mag) Surface Threshold Offset Overrun Length
11 148 ft / 45 m 8,187 ft / 2,495 m 113.61° 108.80° Asphalt 719 ft / 219 m 0 ft / 0 m
29 148 ft / 45 m 8,187 ft / 2,495 m 293.63° 288.82° Asphalt 985 ft / 300 m 0 ft / 0 m

Map

Weather


0- 5 10 15 20 25 30 35+ Temperature / ° C

Clouds and Precipitation
Forecast for 2018-05-22 12:00 UTC. Updated 5 hours ago

Ground ~20,000 ft ~40,000 ft Winds

METAR

LYNI 221600Z 06004KT 020V080 9999 TS FEW030CB SCT040 21/15 Q1017 TEMPO 20015KT TSRA

TAF

TAF LYNI 221100Z 2212/2312 09007KT 9999 SCT040 TX26/2214Z TN14/2303Z TEMPO 2212/2219 VRB17KT 4000 TSRA SCT030CB BKN040 TEMPO 2302/2306 5000 BR BKN010 TEMPO 2310/2312 2000 TSRA SCT015 BKN027CB

Frequencies

Tower 129.32 MHz TWR
Approach 129.32 MHz APP
Warning: Do not use this data for real-world aviation or navigation. No guarantee of current accuracy is given.